createdAt,value
2023-02-03T00:01:40.973Z,2.19
2023-02-03T00:06:44.240Z,2.26
2023-02-03T00:11:48.167Z,2.32
2023-02-03T00:16:50.907Z,2.36
2023-02-03T00:21:53.392Z,2.39
2023-02-03T00:26:57.187Z,2.43
2023-02-03T00:31:59.820Z,2.45
2023-02-03T00:37:02.904Z,2.47
2023-02-03T00:42:07.612Z,2.50
2023-02-03T00:47:10.200Z,2.50
2023-02-03T00:52:12.720Z,2.49
2023-02-03T00:57:16.552Z,2.49
2023-02-03T01:02:19.139Z,2.49
2023-02-03T01:07:21.629Z,2.52
2023-02-03T01:12:25.409Z,2.49
2023-02-03T01:17:27.942Z,2.46
2023-02-03T01:22:31.176Z,2.42
2023-02-03T01:27:35.052Z,2.39
2023-02-03T01:32:37.523Z,2.41
2023-02-03T01:37:40.013Z,2.42
2023-02-03T01:42:43.854Z,2.41
2023-02-03T01:47:51.192Z,2.40
2023-02-03T01:52:58.475Z,2.40
2023-02-03T01:58:07.613Z,2.41
2023-02-03T02:03:10.842Z,2.42
2023-02-03T02:08:14.904Z,2.44
2023-02-03T02:13:20.496Z,2.45
2023-02-03T02:18:37.571Z,2.46
2023-02-03T02:24:08.978Z,2.44
2023-02-03T02:29:51.048Z,2.46
2023-02-03T02:35:02.794Z,2.48
2023-02-03T02:40:16.754Z,2.52
2023-02-03T02:45:26.363Z,2.55
2023-02-03T02:50:35.701Z,2.57
2023-02-03T02:55:41.186Z,2.63
2023-02-03T03:00:44.859Z,2.69
2023-02-03T03:05:53.413Z,2.71
2023-02-03T03:10:57.967Z,2.75
2023-02-03T03:16:02.546Z,2.78
2023-02-03T03:21:09.035Z,2.86
2023-02-03T03:26:17.399Z,2.90
2023-02-03T03:31:20.989Z,3.01
2023-02-03T03:36:30.198Z,3.07
2023-02-03T03:41:42.284Z,3.13
2023-02-03T03:46:51.139Z,3.25
2023-02-03T03:51:59.894Z,3.39
2023-02-03T03:57:07.695Z,3.49
2023-02-03T04:02:10.940Z,3.61
2023-02-03T04:07:15.616Z,3.77
2023-02-03T04:12:24.339Z,3.96
2023-02-03T04:17:26.864Z,4.17
2023-02-03T04:22:30.666Z,4.35
2023-02-03T04:27:33.514Z,4.53
2023-02-03T04:32:36.419Z,4.68
2023-02-03T04:37:40.319Z,4.79
2023-02-03T04:42:42.885Z,4.91
2023-02-03T04:47:45.379Z,5.03
2023-02-03T04:52:49.217Z,5.17
2023-02-03T04:57:56.316Z,5.29
2023-02-03T05:02:58.837Z,5.43
2023-02-03T05:08:02.749Z,5.53
2023-02-03T05:13:05.249Z,5.63
2023-02-03T05:18:08.016Z,5.75
2023-02-03T05:23:11.825Z,5.85
2023-02-03T05:28:14.457Z,5.92
2023-02-03T05:33:17.405Z,6.00
2023-02-03T05:38:21.320Z,6.07
2023-02-03T05:43:23.833Z,6.13
2023-02-03T05:48:26.333Z,6.21
2023-02-03T05:53:30.271Z,6.27
2023-02-03T05:58:32.833Z,6.35
2023-02-03T06:03:35.397Z,6.43
2023-02-03T06:08:39.318Z,6.47
2023-02-03T06:13:41.802Z,6.52
2023-02-03T06:18:44.285Z,6.56
2023-02-03T06:23:48.297Z,6.59
2023-02-03T06:28:50.814Z,6.60
2023-02-03T06:33:53.357Z,6.67
2023-02-03T06:38:58.288Z,6.64
2023-02-03T06:44:00.789Z,6.65
2023-02-03T06:49:03.282Z,6.70
2023-02-03T06:54:07.957Z,6.70
2023-02-03T06:59:10.966Z,6.74
2023-02-03T07:04:13.452Z,6.81
2023-02-03T07:09:17.325Z,6.85
2023-02-03T07:14:20.018Z,6.87
2023-02-03T07:19:22.549Z,6.87
2023-02-03T07:24:26.399Z,6.91
2023-02-03T07:29:29.236Z,6.95
2023-02-03T07:34:31.761Z,6.98
2023-02-03T07:39:35.668Z,7.02
2023-02-03T07:44:38.197Z,7.07
2023-02-03T07:49:40.730Z,7.09
2023-02-03T07:54:44.583Z,7.14
2023-02-03T07:59:47.076Z,7.16
2023-02-03T08:04:49.665Z,7.26
2023-02-03T08:09:53.529Z,7.25
2023-02-03T08:14:56.103Z,7.33
2023-02-03T08:19:58.581Z,7.47
2023-02-03T08:25:02.424Z,7.52
2023-02-03T08:30:06.193Z,7.63
2023-02-03T08:35:09.714Z,7.65
2023-02-03T08:40:14.047Z,7.52
2023-02-03T08:45:16.539Z,7.49
2023-02-03T08:50:19.736Z,7.50
2023-02-03T08:55:24.544Z,7.48
2023-02-03T09:00:28.004Z,7.47
2023-02-03T09:05:31.304Z,7.45
2023-02-03T09:10:35.131Z,7.55
2023-02-03T09:15:38.065Z,7.56
2023-02-03T09:20:40.581Z,7.56
2023-02-03T09:25:47.237Z,7.58
2023-02-03T09:30:51.110Z,7.59
2023-02-03T09:35:53.969Z,7.72
2023-02-03T09:41:11.305Z,7.65
2023-02-03T09:46:20.999Z,7.76
2023-02-03T09:51:26.112Z,7.90
2023-02-03T09:56:33.297Z,7.91
2023-02-03T10:01:42.660Z,8.23
2023-02-03T10:06:47.277Z,8.08
2023-02-03T10:12:09.511Z,8.08
2023-02-03T10:17:30.325Z,8.18
2023-02-03T10:22:38.896Z,8.38
2023-02-03T10:27:44.807Z,8.38
2023-02-03T10:32:50.257Z,8.38
2023-02-03T10:37:58.423Z,8.40
2023-02-03T10:43:19.957Z,8.31
2023-02-03T10:48:23.515Z,8.32
2023-02-03T10:53:28.068Z,8.21
2023-02-03T10:58:34.054Z,8.20
2023-02-03T11:03:36.886Z,8.19
2023-02-03T11:08:41.450Z,8.11
2023-02-03T11:13:45.289Z,8.05
2023-02-03T11:18:54.135Z,8.08
2023-02-03T11:24:03.033Z,7.97
2023-02-03T11:29:08.355Z,8.01
2023-02-03T11:34:19.570Z,7.79
2023-02-03T11:39:27.133Z,7.69
2023-02-03T11:44:33.531Z,7.78
2023-02-03T11:50:11.506Z,7.83
2023-02-03T11:55:26.814Z,7.73
2023-02-03T12:00:40.038Z,7.78
2023-02-03T12:06:01.640Z,7.89
2023-02-03T12:11:12.670Z,7.85
2023-02-03T12:16:31.767Z,7.90
2023-02-03T12:21:44.229Z,7.88
2023-02-03T12:26:53.123Z,8.06
2023-02-03T12:32:06.469Z,8.13
2023-02-03T12:37:15.227Z,8.17
2023-02-03T12:42:22.168Z,8.28
2023-02-03T12:47:33.092Z,8.44
2023-02-03T12:52:40.440Z,8.46
2023-02-03T12:57:49.171Z,8.16
2023-02-03T13:03:07.988Z,7.77
2023-02-03T13:08:17.748Z,7.35
2023-02-03T13:13:30.089Z,7.16
2023-02-03T13:18:38.062Z,6.98
2023-02-03T13:23:44.631Z,7.08
2023-02-03T13:29:04.028Z,6.99
2023-02-03T13:34:53.665Z,7.13
2023-02-03T13:40:17.939Z,7.14
2023-02-03T13:45:30.641Z,7.09
2023-02-03T13:50:36.458Z,6.96
2023-02-03T13:55:43.036Z,7.01
2023-02-03T14:01:31.684Z,6.96
2023-02-03T14:07:13.322Z,6.89
2023-02-03T14:12:34.099Z,6.96
2023-02-03T14:18:06.982Z,6.86
2023-02-03T14:23:17.603Z,6.78
2023-02-03T14:28:41.927Z,6.77
2023-02-03T14:33:55.306Z,6.68
2023-02-03T14:39:03.395Z,6.60
2023-02-03T14:44:18.749Z,6.67
2023-02-03T14:49:36.941Z,6.66
2023-02-03T14:54:56.829Z,6.63
2023-02-03T15:00:05.912Z,6.52
2023-02-03T15:05:36.881Z,6.49
2023-02-03T15:10:44.882Z,6.47
2023-02-03T15:15:56.146Z,6.47
2023-02-03T15:21:03.276Z,6.52
2023-02-03T15:26:20.644Z,6.61
2023-02-03T15:31:32.260Z,6.62
2023-02-03T15:36:43.963Z,6.53
2023-02-03T15:41:50.776Z,6.62
2023-02-03T15:47:01.825Z,6.57
2023-02-03T15:52:15.025Z,6.61
2023-02-03T15:57:23.250Z,6.70
2023-02-03T16:02:35.021Z,6.74
2023-02-03T16:07:43.107Z,6.82
2023-02-03T16:12:46.264Z,6.77
2023-02-03T16:17:57.473Z,6.87
2023-02-03T16:23:07.627Z,6.90
2023-02-03T16:28:35.902Z,6.93
2023-02-03T16:33:58.323Z,7.03
2023-02-03T16:39:22.635Z,6.96
2023-02-03T16:44:43.029Z,6.85
2023-02-03T16:50:06.036Z,6.91
2023-02-03T16:55:10.862Z,6.84
2023-02-03T17:00:15.368Z,6.78
2023-02-03T17:05:22.873Z,6.73
2023-02-03T17:10:27.934Z,6.74
2023-02-03T17:15:31.495Z,6.55
2023-02-03T17:20:37.037Z,6.51
2023-02-03T17:25:41.292Z,6.43
2023-02-03T17:30:46.099Z,6.35
2023-02-03T17:36:01.630Z,6.32
2023-02-03T17:57:16.154Z,6.30
2023-02-03T18:02:19.054Z,6.31
2023-02-03T18:07:25.979Z,6.28
2023-02-03T18:12:30.393Z,6.23
2023-02-03T18:17:33.921Z,6.33
2023-02-03T18:22:39.594Z,6.15
2023-02-03T18:27:49.245Z,5.93
2023-02-03T18:32:54.792Z,5.61
2023-02-03T18:38:02.932Z,5.31
2023-02-03T18:43:10.466Z,5.12
2023-02-03T18:48:13.450Z,4.95
2023-02-03T18:53:21.501Z,4.80
2023-02-03T18:58:25.522Z,4.73
2023-02-03T19:03:28.535Z,4.45
2023-02-03T19:08:34.626Z,4.27
2023-02-03T19:13:38.905Z,4.27
2023-02-03T19:18:44.349Z,4.18
2023-02-03T19:23:49.202Z,4.08
2023-02-03T19:29:11.030Z,4.11
2023-02-03T19:34:15.958Z,3.90
2023-02-03T19:39:21.863Z,3.91
2023-02-03T19:44:24.433Z,3.86
2023-02-03T19:49:28.605Z,4.08
2023-02-03T19:54:33.145Z,4.12
2023-02-03T19:59:35.891Z,3.86
2023-02-03T20:04:55.024Z,4.00
2023-02-03T20:10:19.823Z,3.89
2023-02-03T20:15:31.631Z,3.78
2023-02-03T20:26:14.025Z,3.72
2023-02-03T20:31:24.627Z,3.70
2023-02-03T20:36:33.331Z,3.68
2023-02-03T20:41:43.155Z,3.66
2023-02-03T20:47:00.729Z,3.73
2023-02-03T21:08:39.638Z,3.78
2023-02-03T21:14:13.282Z,3.80
2023-02-03T21:19:35.119Z,3.70
2023-02-03T21:36:08.029Z,3.72
2023-02-03T21:52:32.782Z,3.74
2023-02-03T21:57:50.900Z,3.77
2023-02-03T22:08:25.754Z,3.68
2023-02-03T22:13:45.434Z,3.74
2023-02-03T22:18:50.886Z,3.66
2023-02-03T22:24:06.352Z,3.68
2023-02-03T22:29:11.196Z,3.65
2023-02-03T22:34:41.648Z,3.66
2023-02-03T22:40:04.726Z,3.67
2023-02-03T22:45:13.161Z,3.66
2023-02-03T22:50:35.021Z,3.65
2023-02-03T23:01:04.306Z,3.62
2023-02-03T23:11:30.164Z,3.57
2023-02-03T23:22:16.732Z,3.52
2023-02-03T23:27:19.933Z,3.52
2023-02-03T23:32:30.223Z,3.47
2023-02-03T23:37:35.270Z,3.43
2023-02-03T23:42:38.494Z,3.42
2023-02-03T23:48:17.363Z,3.38
2023-02-03T23:53:19.845Z,3.33
2023-02-03T23:58:22.312Z,3.31
